Time;durP1;ratioP1;P1;durP2;ratioP2;P2;SDS_P1;SDS_P2;PMS_P1;PMS_P2;Temp;Humidity;BMP_temperature;BMP_pressure;BME280_temperature;BME280_humidity;BME280_pressure;Samples;Min_cycle;Max_cycle;Signal;HPM_P1;HPM_P2
2022/04/25 00:01:14;;;;;;;;;;;;;;;17.83;43.13;101162.53;5001886;28;19972;-80
2022/04/25 00:03:40;;;;;;;;;;;;;;;17.73;43.14;101153.03;4999487;28;19919;-81
2022/04/25 00:06:06;;;;;;;;;;;;;;;17.77;43.19;101158.19;5019434;28;19920;-81
2022/04/25 00:08:31;;;;;;;;;;;;;;;17.79;43.12;101156.44;4991642;28;19914;-82
2022/04/25 00:10:59;;;;;;;;;;;;;;;17.78;43.13;101156.44;4999863;28;19915;-82
2022/04/25 00:13:25;;;;;;;;;;;;;;;17.85;42.67;101153.81;5000481;28;19922;-82
2022/04/25 00:15:52;;;;;;;;;;;;;;;17.81;42.91;101156.41;4973943;28;20006;-80
2022/04/25 00:18:17;;;;;;;;;;;;;;;17.80;43.08;101159.91;4964985;28;19922;-79
2022/04/25 00:20:42;;;;;;;;;;;;;;;17.74;43.23;101160.78;4965606;28;19922;-80
2022/04/25 00:23:08;;;;;;;;;;;;;;;17.80;43.27;101158.16;4949338;28;19922;-78
2022/04/25 00:25:34;;;;;;;;;;;;;;;17.82;43.23;101160.81;4950031;28;20389;-78
2022/04/25 00:27:59;;;;;;;;;;;;;;;17.84;42.89;101153.84;4982735;28;19980;-78
2022/04/25 00:30:25;;;;;;;;;;;;;;;17.78;43.27;101154.72;4982991;28;19914;-78
2022/04/25 00:32:50;;;;;;;;;;;;;;;17.73;43.33;101148.66;4950321;28;19925;-78
2022/04/25 00:35:16;;;;;;;;;;;;;;;17.74;43.28;101147.78;4983771;28;19970;-78
2022/04/25 00:37:41;;;;;;;;;;;;;;;17.75;43.60;101143.47;4966350;28;19914;-78
2022/04/25 00:40:07;;;;;;;;;;;;;;;17.72;43.78;101146.06;4983127;28;19953;-78
2022/04/25 00:42:32;;;;;;;;;;;;;;;17.77;43.33;101137.38;4949999;28;19929;-78
2022/04/25 00:45:00;;;;;;;;;;;;;;;17.77;43.26;101147.78;4946080;28;19953;-78
2022/04/25 00:47:26;;;;;;;;;;;;;;;17.73;43.59;101135.66;4947024;28;19962;-78
2022/04/25 00:49:51;;;;;;;;;;;;;;;17.76;43.75;101132.16;4962927;28;19921;-78
2022/04/25 00:52:17;;;;;;;;;;;;;;;17.80;43.61;101134.75;4980736;28;19920;-78
2022/04/25 00:54:42;;;;;;;;;;;;;;;17.80;43.60;101133.88;4946551;28;19960;-78
2022/04/25 00:57:08;;;;;;;;;;;;;;;17.77;43.64;101142.59;4963555;28;20017;-78
2022/04/25 00:59:34;;;;;;;;;;;;;;;17.76;43.84;101138.22;4963345;28;19949;-78
2022/04/25 01:01:59;;;;;;;;;;;;;;;17.79;43.69;101129.53;4963835;28;19922;-78
2022/04/25 01:04:24;;;;;;;;;;;;;;;17.82;43.76;101135.63;4963932;28;20388;-78
2022/04/25 01:06:50;;;;;;;;;;;;;;;17.83;43.53;101121.75;4964030;28;19921;-78
2022/04/25 01:09:15;;;;;;;;;;;;;;;17.82;43.66;101130.44;4948737;28;19926;-78
2022/04/25 01:11:40;;;;;;;;;;;;;;;17.84;43.44;101123.47;4953237;28;19925;-78
2022/04/25 01:14:12;;;;;;;;;;;;;;;17.81;43.93;101120.88;4955440;28;20472;-78
2022/04/25 01:16:37;;;;;;;;;;;;;;;17.85;43.57;101126.94;4967113;28;19918;-78
2022/04/25 01:19:03;;;;;;;;;;;;;;;17.79;43.82;101134.75;4966413;28;19918;-78
2022/04/25 01:21:29;;;;;;;;;;;;;;;17.78;43.65;101127.81;4949573;28;19937;-77
2022/04/25 01:29:22;;;;;;;;;;;;;;;17.76;43.55;101135.63;4979514;28;19926;-78
2022/04/25 01:31:47;;;;;;;;;;;;;;;17.69;43.63;101123.53;4962779;28;19918;-78
2022/04/25 01:34:12;;;;;;;;;;;;;;;17.68;43.68;101127.00;4962301;28;19941;-78
2022/04/25 01:36:38;;;;;;;;;;;;;;;17.69;43.60;101126.13;4947013;28;19918;-77
2022/04/25 01:39:03;;;;;;;;;;;;;;;17.67;43.65;101123.53;4946721;28;19922;-78
2022/04/25 01:41:28;;;;;;;;;;;;;;;17.69;43.55;101129.59;4946369;28;19918;-78
2022/04/25 01:43:54;;;;;;;;;;;;;;;17.73;43.30;101125.25;4946753;28;19922;-78
2022/04/25 01:46:19;;;;;;;;;;;;;;;17.71;43.52;101132.19;4946606;28;20037;-78
2022/04/25 01:48:44;;;;;;;;;;;;;;;17.70;43.59;101130.44;4946219;28;19941;-77
2022/04/25 01:51:10;;;;;;;;;;;;;;;17.72;43.66;101130.44;4961398;28;19918;-78
2022/04/25 01:53:35;;;;;;;;;;;;;;;17.61;44.01;101130.50;4962393;28;19950;-78
2022/04/25 01:56:01;;;;;;;;;;;;;;;17.67;43.72;101133.06;4961650;28;19926;-77
2022/04/25 01:58:26;;;;;;;;;;;;;;;17.65;43.75;101127.88;4946661;28;19997;-78
2022/04/25 02:00:51;;;;;;;;;;;;;;;17.70;43.63;101127.84;4962217;28;19941;-78
2022/04/25 02:03:17;;;;;;;;;;;;;;;17.69;43.56;101126.13;4946195;28;19922;-78
2022/04/25 02:05:42;;;;;;;;;;;;;;;17.62;43.62;101124.44;4961942;28;19918;-77
2022/04/25 02:08:07;;;;;;;;;;;;;;;17.65;43.54;101124.41;4944760;28;19919;-78
2022/04/25 02:10:32;;;;;;;;;;;;;;;17.57;43.65;101129.69;4944204;28;20405;-77
2022/04/25 02:12:58;;;;;;;;;;;;;;;17.59;43.64;101121.84;4960422;28;19956;-77
2022/04/25 02:15:23;;;;;;;;;;;;;;;17.58;43.82;101122.72;4960587;28;19918;-78
2022/04/25 02:17:49;;;;;;;;;;;;;;;17.56;43.37;101119.25;4945424;28;19972;-78
2022/04/25 02:20:14;;;;;;;;;;;;;;;17.61;43.46;101125.28;4978996;28;19921;-78
2022/04/25 02:22:39;;;;;;;;;;;;;;;17.64;43.50;101115.75;4945987;28;19922;-77
2022/04/25 02:25:05;;;;;;;;;;;;;;;17.60;43.78;101124.44;4945281;28;19969;-78
2022/04/25 02:27:31;;;;;;;;;;;;;;;17.50;43.66;101121.88;4961459;28;19918;-77
2022/04/25 02:29:58;;;;;;;;;;;;;;;17.49;43.97;101115.81;4945228;28;19918;-78
2022/04/25 02:32:28;;;;;;;;;;;;;;;17.57;44.21;101126.19;4961451;28;19914;-77
2022/04/25 02:34:54;;;;;;;;;;;;;;;17.58;44.28;101114.91;4945462;28;19914;-77
2022/04/25 02:37:19;;;;;;;;;;;;;;;17.62;44.46;101114.03;4978087;28;19937;-77
2022/04/25 02:39:45;;;;;;;;;;;;;;;17.65;44.42;101107.06;4945033;28;20361;-77
2022/04/25 02:42:10;;;;;;;;;;;;;;;17.61;44.50;101117.50;4946459;28;20025;-77
2022/04/25 02:44:35;;;;;;;;;;;;;;;17.63;44.29;101110.53;4968943;28;19934;-82
2022/04/25 02:47:00;;;;;;;;;;;;;;;17.60;44.46;101113.19;4985675;28;19978;-83
2022/04/25 02:49:29;;;;;;;;;;;;;;;17.56;44.61;101116.66;4968967;28;19906;-82
2022/04/25 02:51:54;;;;;;;;;;;;;;;17.55;44.83;101114.91;4966526;28;19929;-81
2022/04/25 02:54:19;;;;;;;;;;;;;;;17.63;44.38;101116.59;4968585;28;19910;-82
2022/04/25 02:56:44;;;;;;;;;;;;;;;17.61;44.44;101113.16;4969822;28;19922;-83
2022/04/25 03:59:08;;;;;;;;;;;;;;;17.47;44.75;101123.63;5249181;23;19930;-78
2022/04/25 04:01:35;;;;;;;;;;;;;;;17.48;44.46;101122.78;4946844;28;19926;-78
2022/04/25 04:04:04;;;;;;;;;;;;;;;17.37;44.67;101126.28;4961303;28;19937;-78
2022/04/25 04:06:30;;;;;;;;;;;;;;;17.38;44.71;101134.09;4951022;28;19918;-79
2022/04/25 04:08:55;;;;;;;;;;;;;;;17.37;44.85;101119.31;4966114;28;20408;-78
2022/04/25 04:11:20;;;;;;;;;;;;;;;17.40;44.88;101121.94;4964995;28;19925;-79
2022/04/25 04:13:47;;;;;;;;;;;;;;;17.38;44.89;101125.41;4963906;28;19976;-78
2022/04/25 04:16:12;;;;;;;;;;;;;;;17.40;44.93;101126.28;4979372;28;19937;-78
2022/04/25 04:18:40;;;;;;;;;;;;;;;17.37;44.85;101131.47;4963602;28;19918;-78
2022/04/25 04:21:06;;;;;;;;;;;;;;;17.43;44.77;101127.13;4949220;28;19918;-79
2022/04/25 04:23:31;;;;;;;;;;;;;;;17.40;44.59;101128.88;4965149;28;19930;-79
2022/04/25 04:25:56;;;;;;;;;;;;;;;17.38;44.75;101130.63;4949459;28;19918;-78
2022/04/25 04:28:21;;;;;;;;;;;;;;;17.42;44.78;101134.91;4964666;28;19925;-79
2022/04/25 04:30:47;;;;;;;;;;;;;;;17.39;44.86;101135.81;4947651;28;19918;-79
2022/04/25 04:33:12;;;;;;;;;;;;;;;17.38;44.85;101134.09;4948291;28;20292;-79
2022/04/25 04:38:21;;;;;;;;;;;;;;;17.34;45.10;101139.31;4965962;28;19984;-78
2022/04/25 04:40:46;;;;;;;;;;;;;;;17.36;44.90;101148.81;4947985;28;20353;-79
2022/04/25 04:43:12;;;;;;;;;;;;;;;17.35;44.75;101154.03;4964234;28;19922;-78
2022/04/25 04:45:37;;;;;;;;;;;;;;;17.37;44.76;101154.91;4964195;28;19950;-78
2022/04/25 04:48:02;;;;;;;;;;;;;;;17.37;44.98;101153.16;4980773;28;19921;-78
2022/04/25 04:50:28;;;;;;;;;;;;;;;17.40;44.69;101155.75;4963113;28;19914;-78
2022/04/25 04:52:59;;;;;;;;;;;;;;;17.37;44.78;101168.75;4963435;28;20358;-78
2022/04/25 04:55:24;;;;;;;;;;;;;;;17.33;44.80;101164.44;4963229;28;19964;-78
2022/04/25 04:57:51;;;;;;;;;;;;;;;17.33;44.78;101172.22;4960814;28;19918;-78
2022/04/25 05:00:16;;;;;;;;;;;;;;;17.37;44.91;101168.75;4979433;28;19918;-78
2022/04/25 05:02:43;;;;;;;;;;;;;;;17.34;44.83;101167.91;4963137;28;20376;-78
2022/04/25 05:05:09;;;;;;;;;;;;;;;17.32;45.22;101169.66;4979929;28;19914;-79
2022/04/25 05:07:35;;;;;;;;;;;;;;;17.27;45.07;101180.94;4963187;28;19925;-79
2022/04/25 05:10:02;;;;;;;;;;;;;;;17.34;45.09;101175.72;4947285;28;20302;-78
2022/04/25 05:12:27;;;;;;;;;;;;;;;17.35;45.07;101193.06;4947664;28;19918;-78
2022/04/25 05:14:54;;;;;;;;;;;;;;;17.37;45.08;101199.97;4964195;28;19920;-78
2022/04/25 05:17:19;;;;;;;;;;;;;;;17.42;45.11;101197.34;4963523;28;19968;-78
2022/04/25 05:19:44;;;;;;;;;;;;;;;17.41;45.05;101190.44;4947184;28;19925;-79
2022/04/25 05:22:10;;;;;;;;;;;;;;;17.40;45.13;101192.19;4976615;23;19926;-79
2022/04/25 05:24:35;;;;;;;;;;;;;;;17.42;45.05;101195.66;4948498;28;19964;-78
2022/04/25 05:27:01;;;;;;;;;;;;;;;17.60;46.50;101193.84;4972583;28;19941;-80
2022/04/25 05:29:29;;;;;;;;;;;;;;;18.17;46.31;101196.19;5053766;23;19927;-81
2022/04/25 05:31:57;;;;;;;;;;;;;;;18.43;45.52;101190.81;5229484;23;20284;-81
2022/04/25 05:34:23;;;;;;;;;;;;;;;18.57;45.14;101193.28;4969886;28;19918;-81
2022/04/25 05:36:48;;;;;;;;;;;;;;;18.65;45.00;101194.09;4994997;28;19917;-82
2022/04/25 05:42:17;;;;;;;;;;;;;;;18.77;44.57;101196.63;5008594;28;20006;-82
2022/04/25 05:44:42;;;;;;;;;;;;;;;18.79;44.83;101202.72;4986130;28;19945;-81
2022/04/25 05:47:10;;;;;;;;;;;;;;;18.80;44.99;101207.03;5003311;28;19920;-82
2022/04/25 05:52:12;;;;;;;;;;;;;;;18.82;44.81;101201.81;5074354;23;19932;-83
2022/04/25 05:54:38;;;;;;;;;;;;;;;18.83;44.69;101206.13;4991482;28;19920;-83
2022/04/25 05:59:47;;;;;;;;;;;;;;;18.86;44.62;101219.16;5047089;23;19921;-83
2022/04/25 06:02:32;;;;;;;;;;;;;;;18.87;44.74;101221.75;5868234;23;21069;-81
2022/04/25 06:04:58;;;;;;;;;;;;;;;18.88;44.76;101231.31;4998274;28;19922;-81
2022/04/25 06:13:44;;;;;;;;;;;;;;;18.88;44.66;101231.31;4976308;29;19926;-83
2022/04/25 06:16:30;;;;;;;;;;;;;;;18.88;44.64;101231.31;4976288;28;19970;-83
2022/04/25 06:22:02;;;;;;;;;;;;;;;18.88;44.42;101236.53;4977078;29;19925;-83
2022/04/25 06:33:28;;;;;;;;;;;;;;;18.99;44.19;101245.97;4981735;29;19925;-83
2022/04/25 06:36:15;;;;;;;;;;;;;;;19.00;44.02;101242.50;4981041;28;19921;-83
2022/04/25 06:46:28;;;;;;;;;;;;;;;19.07;43.78;101252.84;5661815;23;19930;-82
2022/04/25 06:52:05;;;;;;;;;;;;;;;19.11;43.81;101254.56;5001979;28;19925;-83
2022/04/25 07:03:36;;;;;;;;;;;;;;;19.10;44.01;101257.19;4976195;29;19910;-84
2022/04/25 07:11:51;;;;;;;;;;;;;;;19.10;43.79;101268.50;4983238;28;19922;-83
2022/04/25 07:18:05;;;;;;;;;;;;;;;19.14;43.77;101263.25;4962832;29;19945;-82
2022/04/25 07:29:59;;;;;;;;;;;;;;;19.07;44.01;101262.44;4962935;29;19939;-82
2022/04/25 09:19:37;;;;;;;;;;;;;;;19.24;43.67;101346.63;6065812;23;19921;31
2022/04/25 09:25:40;;;;;;;;;;;;;;;19.21;43.64;101353.66;4848582;29;19919;-85
2022/04/25 13:23:11;;;;;;;;;;;;;;;19.03;43.51;101508.53;4921768;29;19934;-85
2022/04/25 13:54:08;;;;;;;;;;;;;;;19.02;43.87;101517.25;5551906;23;19915;-84
2022/04/25 14:06:54;;;;;;;;;;;;;;;19.27;43.45;101526.69;5759550;23;19926;-84
2022/04/25 16:15:54;;;;;;;;;;;;;;;19.22;44.13;101538.88;5065147;23;19981;-88
2022/04/25 16:39:01;;;;;;;;;;;;;;;19.13;44.25;101544.13;5870636;23;19932;-81
2022/04/25 16:41:27;;;;;;;;;;;;;;;19.10;44.27;101534.59;5739226;23;19917;-81
2022/04/25 16:43:53;;;;;;;;;;;;;;;19.08;44.41;101546.78;5577085;23;19925;-83
2022/04/25 16:48:55;;;;;;;;;;;;;;;19.09;44.54;101548.50;5127209;23;19925;-82
2022/04/25 16:53:56;;;;;;;;;;;;;;;19.09;44.73;101547.63;5968766;23;19928;-82
2022/04/25 16:56:23;;;;;;;;;;;;;;;19.10;44.92;101536.34;5002287;28;19988;-88
2022/04/25 17:09:11;;;;;;;;;;;;;;;19.10;45.57;101547.63;5602229;23;19916;-85
2022/04/25 17:16:47;;;;;;;;;;;;;;;19.11;45.45;101561.53;5977562;23;20831;-81
2022/04/25 17:19:15;;;;;;;;;;;;;;;19.10;45.58;101557.22;5001387;28;19985;-83
2022/04/25 17:21:40;;;;;;;;;;;;;;;19.10;45.60;101563.28;4986825;28;19906;-82
2022/04/25 17:29:17;;;;;;;;;;;;;;;19.07;45.65;101563.28;5788269;23;19910;-83
